createdAt,value
2018-02-13T00:00:22.119Z,84.10
2018-02-13T00:02:49.584Z,84.20
2018-02-13T00:05:17.017Z,84.60
2018-02-13T00:07:45.236Z,84.80
2018-02-13T00:10:12.799Z,84.80
2018-02-13T00:12:40.242Z,84.80
2018-02-13T00:15:07.683Z,84.70
2018-02-13T00:17:35.128Z,84.90
2018-02-13T00:20:02.585Z,85.10
2018-02-13T00:22:49.093Z,85.20
2018-02-13T00:25:16.563Z,85.50
2018-02-13T00:27:44.006Z,85.50
2018-02-13T00:30:11.444Z,85.60
2018-02-13T00:32:39.227Z,85.70
2018-02-13T00:35:06.698Z,85.70
2018-02-13T00:37:34.154Z,85.80
2018-02-13T00:40:01.597Z,85.60
2018-02-13T00:42:29.050Z,85.50
2018-02-13T00:44:56.505Z,85.20
2018-02-13T00:47:23.940Z,85.30
2018-02-13T00:49:51.401Z,85.10
2018-02-13T00:52:18.859Z,85.10
2018-02-13T00:54:46.322Z,85.10
2018-02-13T00:57:13.778Z,85.30
2018-02-13T00:59:41.225Z,85.50
2018-02-13T01:02:08.692Z,85.80
2018-02-13T01:08:06.305Z,85.90
2018-02-13T01:10:33.752Z,86.00
2018-02-13T01:13:01.230Z,86.20
2018-02-13T01:15:28.684Z,86.40
2018-02-13T01:17:56.142Z,86.60
2018-02-13T01:20:23.875Z,86.70
2018-02-13T01:22:51.316Z,86.60
2018-02-13T01:25:18.769Z,86.60
2018-02-13T01:27:46.618Z,86.50
2018-02-13T01:30:14.044Z,86.40
2018-02-13T01:32:41.506Z,86.40
2018-02-13T01:35:08.956Z,86.00
2018-02-13T01:37:36.416Z,86.10
2018-02-13T01:40:03.861Z,86.20
2018-02-13T01:42:31.334Z,86.30
2018-02-13T01:44:58.811Z,86.40
2018-02-13T01:47:26.269Z,86.50
2018-02-13T01:49:53.753Z,86.70
2018-02-13T01:52:21.287Z,86.70
2018-02-13T01:54:48.739Z,86.50
2018-02-13T01:57:16.205Z,86.40
2018-02-13T01:59:43.655Z,86.40
2018-02-13T02:02:11.149Z,86.40
2018-02-13T02:04:38.588Z,86.20
2018-02-13T02:07:06.044Z,86.30
2018-02-13T02:09:33.520Z,86.40
2018-02-13T02:12:00.982Z,86.20
2018-02-13T02:14:28.429Z,85.90
2018-02-13T02:16:55.904Z,85.90
2018-02-13T02:19:24.131Z,86.40
2018-02-13T02:21:51.606Z,86.30
2018-02-13T02:24:19.061Z,86.70
2018-02-13T02:26:46.528Z,87.30
2018-02-13T02:29:14.165Z,87.80
2018-02-13T02:31:41.645Z,88.00
2018-02-13T02:34:09.114Z,88.10
2018-02-13T02:36:36.564Z,88.00
2018-02-13T02:39:04.032Z,88.00
2018-02-13T02:41:31.507Z,88.70
2018-02-13T02:43:58.957Z,87.70
2018-02-13T02:46:26.440Z,88.10
2018-02-13T02:48:53.892Z,88.00
2018-02-13T02:51:21.377Z,88.10
2018-02-13T02:53:48.835Z,88.40
2018-02-13T02:56:16.281Z,88.80
2018-02-13T02:58:43.732Z,88.80
2018-02-13T03:01:11.177Z,88.70
2018-02-13T03:03:38.648Z,88.80
2018-02-13T03:06:06.087Z,89.20
2018-02-13T03:08:33.537Z,89.60
2018-02-13T03:11:01.021Z,89.70
2018-02-13T03:13:29.271Z,89.80
2018-02-13T03:15:56.746Z,89.80
2018-02-13T03:18:24.190Z,89.80
2018-02-13T03:20:51.640Z,89.90
2018-02-13T03:23:19.879Z,90.10
2018-02-13T03:25:48.111Z,90.20
2018-02-13T03:28:15.561Z,90.10
2018-02-13T03:30:49.668Z,90.40
2018-02-13T03:33:17.108Z,90.40
2018-02-13T03:35:44.573Z,90.40
2018-02-13T03:38:12.016Z,90.30
2018-02-13T03:40:39.469Z,90.30
2018-02-13T03:43:06.950Z,90.30
2018-02-13T03:45:34.407Z,90.40
2018-02-13T03:48:01.861Z,90.50
2018-02-13T03:50:32.963Z,90.70
2018-02-13T03:53:00.434Z,90.80
2018-02-13T03:55:27.888Z,90.50
2018-02-13T03:57:55.412Z,90.50
2018-02-13T04:00:22.817Z,90.60
2018-02-13T04:02:50.258Z,90.50
2018-02-13T04:05:18.872Z,90.70
2018-02-13T04:07:46.325Z,90.60
2018-02-13T04:10:13.776Z,90.80
2018-02-13T04:12:41.245Z,90.90
2018-02-13T04:15:08.692Z,90.80
2018-02-13T04:17:36.926Z,91.20
2018-02-13T04:20:04.385Z,91.10
2018-02-13T04:22:31.833Z,91.30
2018-02-13T04:24:59.292Z,91.00
2018-02-13T04:27:27.049Z,90.90
2018-02-13T04:29:54.503Z,91.20
2018-02-13T04:32:21.962Z,91.70
2018-02-13T04:34:49.417Z,91.30
2018-02-13T04:37:17.182Z,91.40
2018-02-13T04:39:44.636Z,91.40
2018-02-13T04:42:12.094Z,91.10
2018-02-13T04:44:39.557Z,91.20
2018-02-13T04:47:07.005Z,91.20
2018-02-13T04:49:34.473Z,91.20
2018-02-13T04:52:01.924Z,91.20
2018-02-13T04:54:29.389Z,91.10
2018-02-13T04:56:56.845Z,91.20
2018-02-13T04:59:24.324Z,91.20
2018-02-13T05:01:52.044Z,91.40
2018-02-13T05:04:19.496Z,91.50
2018-02-13T05:06:46.946Z,91.50
2018-02-13T05:09:14.423Z,91.40
2018-02-13T05:11:41.893Z,91.40
2018-02-13T05:14:09.348Z,91.30
2018-02-13T05:16:36.799Z,91.30
2018-02-13T05:19:04.236Z,91.30
2018-02-13T05:21:31.714Z,91.10
2018-02-13T05:23:59.149Z,91.10
2018-02-13T05:26:26.617Z,91.00
2018-02-13T05:28:54.069Z,91.30
2018-02-13T05:31:21.538Z,91.50
2018-02-13T05:33:49.010Z,91.40
2018-02-13T05:36:16.456Z,91.40
2018-02-13T05:38:43.917Z,91.40
2018-02-13T05:41:11.371Z,91.50
2018-02-13T05:43:38.811Z,91.50
2018-02-13T05:46:06.286Z,91.50
2018-02-13T05:48:33.737Z,91.50
2018-02-13T05:51:01.197Z,91.30
2018-02-13T05:53:29.408Z,91.60
2018-02-13T05:55:56.866Z,91.60
2018-02-13T05:58:24.325Z,91.60
2018-02-13T06:00:51.764Z,91.60
2018-02-13T06:03:19.994Z,91.80
2018-02-13T06:05:47.435Z,91.70
2018-02-13T06:08:14.884Z,91.80
2018-02-13T06:10:42.367Z,91.80
2018-02-13T06:13:09.811Z,91.80
2018-02-13T06:15:37.281Z,91.60
2018-02-13T06:18:04.727Z,91.70
2018-02-13T06:20:32.173Z,91.60
2018-02-13T06:22:59.633Z,91.80
2018-02-13T06:25:27.076Z,91.70
2018-02-13T06:27:54.544Z,91.80
2018-02-13T06:30:22.009Z,91.80
2018-02-13T06:32:49.458Z,91.70
2018-02-13T06:35:16.917Z,91.90
2018-02-13T06:37:44.376Z,91.90
2018-02-13T06:40:11.833Z,91.90
2018-02-13T06:42:39.292Z,92.00
2018-02-13T06:45:06.732Z,92.30
2018-02-13T06:47:34.192Z,92.30
2018-02-13T06:50:01.654Z,92.30
2018-02-13T06:52:29.090Z,92.40
2018-02-13T06:54:56.555Z,92.40
2018-02-13T06:57:23.997Z,92.40
2018-02-13T06:59:52.217Z,92.60
2018-02-13T07:02:19.672Z,92.60
2018-02-13T07:04:47.099Z,92.70
2018-02-13T07:07:15.332Z,92.50
2018-02-13T07:09:42.793Z,92.50
2018-02-13T07:12:10.277Z,92.60
2018-02-13T07:14:37.714Z,92.60
2018-02-13T07:17:05.300Z,92.80
2018-02-13T07:19:33.148Z,92.90
2018-02-13T07:22:02.833Z,92.80
2018-02-13T07:24:30.303Z,92.60
2018-02-13T07:26:57.751Z,92.80
2018-02-13T07:29:25.192Z,92.80
2018-02-13T07:31:52.657Z,92.50
2018-02-13T07:34:20.105Z,92.70
2018-02-13T07:36:47.632Z,92.50
2018-02-13T07:39:15.086Z,92.50
2018-02-13T07:41:42.536Z,92.60
2018-02-13T07:44:09.997Z,92.50
2018-02-13T07:46:41.476Z,92.30
2018-02-13T07:49:08.932Z,92.30
2018-02-13T07:51:36.404Z,92.60
2018-02-13T07:54:03.849Z,91.40
2018-02-13T07:56:31.314Z,91.00
2018-02-13T07:58:58.752Z,91.00
2018-02-13T08:01:26.288Z,91.20
2018-02-13T08:03:53.721Z,90.80
2018-02-13T08:06:21.181Z,90.70
2018-02-13T08:08:48.636Z,88.70
2018-02-13T08:11:16.090Z,87.90
2018-02-13T08:13:43.556Z,84.90
2018-02-13T08:16:11.014Z,81.90
2018-02-13T08:18:38.478Z,77.60
2018-02-13T08:21:05.939Z,72.60
2018-02-13T08:23:33.399Z,68.30
2018-02-13T08:26:00.854Z,64.90
2018-02-13T08:28:28.286Z,62.10
2018-02-13T08:30:55.724Z,60.50
2018-02-13T08:33:23.177Z,59.00
2018-02-13T08:35:50.616Z,56.90
2018-02-13T08:38:18.062Z,55.70
2018-02-13T08:40:45.506Z,55.10
2018-02-13T08:43:12.931Z,54.30
2018-02-13T08:45:42.597Z,53.60
2018-02-13T08:48:10.012Z,52.10
2018-02-13T08:50:37.522Z,51.00
2018-02-13T08:53:04.911Z,49.80
2018-02-13T08:55:32.367Z,49.10
2018-02-13T08:57:59.836Z,48.70
2018-02-13T09:00:27.274Z,48.00
2018-02-13T09:02:54.859Z,47.10
2018-02-13T09:05:22.297Z,46.40
2018-02-13T09:07:49.744Z,45.90
2018-02-13T09:10:17.241Z,45.00
2018-02-13T09:12:44.702Z,44.60
2018-02-13T09:15:12.233Z,43.80
2018-02-13T09:17:39.677Z,43.50
2018-02-13T09:20:07.122Z,43.00
2018-02-13T09:22:34.569Z,42.80
2018-02-13T09:25:02.012Z,43.00
2018-02-13T09:27:29.689Z,42.90
2018-02-13T09:29:57.513Z,42.20
2018-02-13T09:32:24.957Z,41.90
2018-02-13T09:34:52.418Z,41.60
2018-02-13T09:37:19.846Z,41.70
2018-02-13T09:39:47.322Z,41.00
2018-02-13T09:42:14.778Z,41.20
2018-02-13T09:44:42.212Z,41.20
2018-02-13T09:47:09.677Z,41.90
2018-02-13T09:49:37.137Z,40.70
2018-02-13T09:52:04.598Z,40.70
2018-02-13T09:54:32.241Z,40.90
2018-02-13T09:56:59.680Z,39.40
2018-02-13T09:59:27.143Z,38.60
2018-02-13T10:01:54.598Z,39.10
2018-02-13T10:04:22.049Z,39.30
2018-02-13T10:06:49.488Z,39.50
2018-02-13T10:09:18.041Z,37.50
2018-02-13T10:11:45.507Z,37.50
2018-02-13T10:14:12.945Z,37.30
2018-02-13T10:16:40.390Z,37.30
2018-02-13T10:19:07.839Z,38.20
2018-02-13T10:21:35.284Z,38.30
2018-02-13T10:24:03.798Z,38.90
2018-02-13T10:26:31.240Z,38.90
2018-02-13T10:28:58.673Z,38.40
2018-02-13T10:31:26.145Z,38.90
2018-02-13T10:33:54.345Z,39.60
2018-02-13T10:36:21.780Z,39.50
2018-02-13T10:38:49.237Z,37.90
2018-02-13T10:41:16.702Z,38.40
2018-02-13T10:48:18.400Z,39.20
2018-02-13T10:50:45.850Z,38.70
2018-02-13T10:53:13.299Z,37.60
2018-02-13T10:55:40.848Z,38.00
2018-02-13T10:58:08.309Z,38.70
2018-02-13T11:00:42.506Z,39.00
2018-02-13T11:03:10.176Z,38.70
2018-02-13T11:05:37.620Z,38.70
2018-02-13T11:08:05.060Z,38.60
2018-02-13T11:10:33.277Z,38.10
2018-02-13T11:13:00.729Z,38.10
2018-02-13T11:15:28.180Z,38.50
2018-02-13T11:17:55.625Z,37.80
2018-02-13T11:20:23.464Z,38.00
2018-02-13T11:22:50.929Z,38.50
2018-02-13T11:25:18.381Z,38.10
2018-02-13T11:27:45.826Z,38.20
2018-02-13T11:30:13.283Z,37.80
2018-02-13T11:32:40.737Z,37.50
2018-02-13T11:35:08.185Z,37.40
2018-02-13T11:37:35.634Z,37.30
2018-02-13T11:40:03.257Z,38.40
2018-02-13T11:42:30.771Z,38.40
2018-02-13T11:44:58.208Z,37.30
2018-02-13T11:47:26.446Z,37.70
2018-02-13T11:49:53.921Z,37.60
2018-02-13T11:52:21.356Z,36.90
2018-02-13T11:54:48.797Z,35.70
2018-02-13T11:57:16.569Z,36.60
2018-02-13T11:59:44.492Z,36.40
2018-02-13T12:02:11.924Z,36.00
2018-02-13T12:04:39.417Z,35.00
2018-02-13T12:07:06.952Z,35.30
2018-02-13T12:09:34.409Z,34.90
2018-02-13T12:12:01.861Z,34.00
2018-02-13T12:14:29.326Z,33.60
2018-02-13T12:16:56.777Z,33.00
2018-02-13T12:19:24.228Z,33.10
2018-02-13T12:21:51.669Z,32.10
2018-02-13T12:24:19.885Z,31.70
2018-02-13T12:26:47.320Z,31.60
2018-02-13T12:29:14.776Z,32.10
2018-02-13T12:31:42.248Z,32.40
2018-02-13T12:34:10.477Z,32.20
2018-02-13T12:36:37.922Z,32.00
2018-02-13T12:39:05.372Z,30.70
2018-02-13T12:41:32.855Z,29.20
2018-02-13T12:44:00.304Z,28.70
2018-02-13T12:46:27.819Z,29.50
2018-02-13T12:48:55.206Z,29.60
2018-02-13T12:51:22.674Z,29.10
2018-02-13T12:53:50.181Z,28.80
2018-02-13T12:56:17.636Z,29.10
2018-02-13T12:58:45.082Z,29.20
2018-02-13T13:01:12.657Z,29.70
2018-02-13T13:03:40.108Z,30.20
2018-02-13T13:06:07.550Z,30.00
2018-02-13T13:08:35.053Z,30.00
2018-02-13T13:11:02.493Z,30.40
2018-02-13T13:13:29.938Z,30.30
2018-02-13T13:15:57.407Z,29.40
2018-02-13T13:18:24.876Z,29.30
2018-02-13T13:20:52.318Z,29.60
2018-02-13T13:23:21.293Z,29.60
2018-02-13T13:25:48.810Z,29.80
2018-02-13T13:28:16.257Z,30.20
2018-02-13T13:30:49.865Z,29.80
2018-02-13T13:33:17.328Z,30.50
2018-02-13T13:35:47.631Z,30.80
2018-02-13T13:38:15.137Z,30.80
2018-02-13T13:40:42.584Z,30.60
2018-02-13T13:43:10.062Z,29.80
2018-02-13T13:45:37.511Z,29.90
2018-02-13T13:48:04.951Z,29.70
2018-02-13T13:50:32.392Z,28.70
2018-02-13T13:52:59.844Z,28.60
2018-02-13T13:55:27.288Z,28.70
2018-02-13T13:57:55.501Z,28.80
2018-02-13T14:00:22.962Z,28.70
2018-02-13T14:02:51.073Z,29.10
2018-02-13T14:05:18.557Z,28.90
2018-02-13T14:07:46.037Z,28.60
2018-02-13T14:10:13.868Z,27.80
2018-02-13T14:12:41.317Z,27.10
2018-02-13T14:15:08.818Z,28.00
2018-02-13T14:17:36.277Z,27.20
2018-02-13T14:20:03.717Z,27.80
2018-02-13T14:22:31.171Z,27.70
2018-02-13T14:24:58.620Z,27.70
2018-02-13T14:27:26.054Z,27.80
2018-02-13T14:29:53.514Z,27.90
2018-02-13T14:32:20.964Z,26.50
2018-02-13T14:34:48.939Z,26.70
2018-02-13T14:37:16.400Z,26.90
2018-02-13T14:39:43.845Z,26.40
2018-02-13T14:42:11.333Z,26.60
2018-02-13T14:44:38.777Z,27.30
2018-02-13T14:47:06.223Z,27.50
2018-02-13T14:49:33.690Z,27.40
2018-02-13T14:52:01.998Z,28.10
2018-02-13T14:54:29.444Z,27.80
2018-02-13T14:56:56.888Z,27.90
2018-02-13T14:59:24.449Z,28.30
2018-02-13T15:01:51.880Z,28.50
2018-02-13T15:04:19.322Z,28.30
2018-02-13T15:06:46.765Z,28.90
2018-02-13T15:09:14.206Z,29.40
2018-02-13T15:11:42.450Z,29.70
2018-02-13T15:14:09.892Z,29.60
2018-02-13T15:16:37.337Z,30.20
2018-02-13T15:19:04.807Z,31.50
2018-02-13T15:21:32.260Z,32.30
2018-02-13T15:23:59.705Z,33.20
2018-02-13T15:26:27.145Z,34.30
2018-02-13T15:28:54.596Z,34.80
2018-02-13T15:31:22.046Z,35.90
2018-02-13T15:33:49.481Z,36.60
2018-02-13T15:36:16.932Z,37.10
2018-02-13T15:38:44.365Z,37.20
2018-02-13T15:41:11.812Z,37.90
2018-02-13T15:43:39.267Z,38.10
2018-02-13T15:46:06.689Z,39.00
2018-02-13T15:48:34.144Z,39.20
2018-02-13T15:51:01.586Z,39.60
2018-02-13T15:53:29.033Z,39.80
2018-02-13T15:55:56.584Z,39.70
2018-02-13T15:58:24.024Z,40.10
2018-02-13T16:00:51.476Z,40.30
2018-02-13T16:03:18.917Z,40.60
2018-02-13T16:05:52.057Z,41.50
2018-02-13T16:08:19.492Z,41.50
2018-02-13T16:10:46.940Z,42.00
2018-02-13T16:13:14.408Z,42.30
2018-02-13T16:15:42.447Z,42.20
2018-02-13T16:18:10.226Z,42.80
2018-02-13T16:20:37.664Z,43.00
2018-02-13T16:23:05.104Z,43.40
2018-02-13T16:25:32.557Z,43.70
2018-02-13T16:28:00.041Z,43.90
2018-02-13T16:30:27.498Z,44.10
2018-02-13T16:32:55.103Z,44.60
2018-02-13T16:35:22.541Z,45.00
2018-02-13T16:37:50.003Z,45.50
2018-02-13T16:40:17.440Z,45.90
2018-02-13T16:42:44.922Z,46.20
2018-02-13T16:45:12.364Z,46.70
2018-02-13T16:47:40.576Z,47.00
2018-02-13T16:50:08.052Z,46.90
2018-02-13T16:52:35.500Z,47.10
2018-02-13T16:55:02.961Z,47.30
2018-02-13T16:57:30.409Z,47.70
2018-02-13T16:59:57.861Z,48.00
2018-02-13T17:02:25.321Z,48.20
2018-02-13T17:04:52.762Z,48.10
2018-02-13T17:07:20.215Z,48.40
2018-02-13T17:09:47.659Z,48.50
2018-02-13T17:12:15.107Z,48.90
2018-02-13T17:14:42.550Z,49.10
2018-02-13T17:17:09.989Z,49.40
2018-02-13T17:19:38.261Z,50.10
2018-02-13T17:22:05.662Z,50.10
2018-02-13T17:24:33.097Z,50.40
2018-02-13T17:27:00.576Z,51.00
2018-02-13T17:29:28.745Z,51.70
2018-02-13T17:35:26.302Z,52.00
2018-02-13T17:37:53.765Z,52.60
2018-02-13T17:40:21.200Z,53.40
2018-02-13T17:42:49.409Z,54.20
2018-02-13T17:45:16.872Z,53.80
2018-02-13T17:47:45.131Z,55.10
2018-02-13T17:50:12.690Z,55.00
2018-02-13T17:52:40.110Z,55.40
2018-02-13T17:55:07.561Z,55.80
2018-02-13T17:57:35.033Z,56.10
2018-02-13T18:00:07.730Z,56.10
2018-02-13T18:02:40.626Z,57.20
2018-02-13T18:05:08.992Z,57.50
2018-02-13T18:07:42.416Z,57.40
2018-02-13T18:10:10.038Z,57.60
2018-02-13T18:12:37.470Z,57.70
2018-02-13T18:15:05.146Z,58.00
2018-02-13T18:17:32.588Z,58.00
2018-02-13T18:20:00.064Z,58.10
2018-02-13T18:22:27.492Z,58.10
2018-02-13T18:24:54.929Z,58.80
2018-02-13T18:27:22.389Z,58.40
2018-02-13T18:29:50.597Z,58.20
2018-02-13T18:32:18.053Z,58.20
2018-02-13T18:34:45.501Z,58.10
2018-02-13T18:37:13.024Z,58.00
2018-02-13T18:39:40.482Z,57.90
2018-02-13T18:42:08.693Z,58.20
2018-02-13T18:44:36.152Z,58.20
2018-02-13T18:47:03.589Z,58.30
2018-02-13T18:49:31.028Z,58.40
2018-02-13T18:51:58.486Z,58.30
2018-02-13T18:54:25.931Z,58.30
2018-02-13T18:56:53.397Z,58.50
2018-02-13T18:59:20.850Z,58.70
2018-02-13T19:01:49.221Z,58.70
2018-02-13T19:04:16.673Z,58.90
2018-02-13T19:06:44.118Z,59.00
2018-02-13T19:09:11.609Z,59.10
2018-02-13T19:11:39.067Z,59.20
2018-02-13T19:14:06.500Z,59.20
2018-02-13T19:16:33.973Z,59.10
2018-02-13T19:19:01.438Z,59.10
2018-02-13T19:21:28.952Z,58.80
2018-02-13T19:23:57.154Z,58.40
2018-02-13T19:26:24.591Z,58.40
2018-02-13T19:28:52.052Z,58.30
2018-02-13T19:31:19.498Z,58.40
2018-02-13T19:33:46.949Z,58.50
2018-02-13T19:36:14.394Z,58.50
2018-02-13T19:38:41.833Z,58.40
2018-02-13T19:41:09.286Z,58.50
2018-02-13T19:43:36.730Z,58.60
2018-02-13T19:46:04.188Z,58.80
2018-02-13T19:48:31.625Z,58.90
2018-02-13T19:50:59.063Z,59.20
2018-02-13T19:53:27.168Z,59.20
2018-02-13T19:55:54.612Z,59.50
2018-02-13T19:58:22.053Z,59.60
2018-02-13T20:00:51.135Z,59.80
2018-02-13T20:05:52.219Z,59.80
2018-02-13T20:08:19.666Z,60.00
2018-02-13T20:10:47.115Z,60.00
2018-02-13T20:13:15.313Z,60.20
2018-02-13T20:15:44.675Z,60.20
2018-02-13T20:18:13.027Z,60.00
2018-02-13T20:20:40.525Z,60.30
2018-02-13T20:23:07.994Z,60.60
2018-02-13T20:25:35.446Z,61.00
2018-02-13T20:28:02.898Z,61.60
2018-02-13T20:30:30.356Z,61.70
2018-02-13T20:32:57.811Z,61.60
2018-02-13T20:35:25.271Z,61.80
2018-02-13T20:37:52.710Z,61.80
2018-02-13T20:40:20.174Z,62.10
2018-02-13T20:42:47.638Z,61.90
2018-02-13T20:45:15.090Z,62.10
2018-02-13T20:47:42.565Z,62.40
2018-02-13T20:50:10.017Z,62.70
2018-02-13T20:52:37.468Z,62.80
2018-02-13T20:55:04.930Z,62.70
2018-02-13T20:57:32.365Z,62.70
2018-02-13T21:00:00.589Z,62.50
2018-02-13T21:02:28.030Z,62.40
2018-02-13T21:04:56.232Z,62.70
2018-02-13T21:07:23.702Z,63.00
2018-02-13T21:09:51.150Z,63.40
2018-02-13T21:12:18.608Z,63.90
2018-02-13T21:14:46.072Z,64.10
2018-02-13T21:17:13.550Z,64.50
2018-02-13T21:19:40.990Z,64.50
2018-02-13T21:22:08.429Z,64.70
2018-02-13T21:24:35.894Z,64.90
2018-02-13T21:27:03.337Z,65.10
2018-02-13T21:29:30.797Z,65.10
2018-02-13T21:31:58.267Z,65.10
2018-02-13T21:34:25.701Z,65.10
2018-02-13T21:36:53.153Z,65.30
2018-02-13T21:39:20.621Z,65.30
2018-02-13T21:41:48.066Z,65.10
2018-02-13T21:44:15.541Z,65.10
2018-02-13T21:46:42.990Z,64.80
2018-02-13T21:49:10.443Z,64.80
2018-02-13T21:51:37.887Z,64.80
2018-02-13T21:54:05.333Z,64.90
2018-02-13T21:56:32.790Z,65.10
2018-02-13T21:59:00.229Z,65.50
2018-02-13T22:01:27.718Z,65.50
2018-02-13T22:03:55.164Z,65.80
2018-02-13T22:06:22.608Z,65.80
2018-02-13T22:08:50.066Z,65.80
2018-02-13T22:11:17.528Z,65.90
2018-02-13T22:13:45.743Z,66.00
2018-02-13T22:16:13.181Z,65.80
2018-02-13T22:18:40.625Z,65.90
2018-02-13T22:21:08.087Z,66.00
2018-02-13T22:23:35.555Z,66.20
2018-02-13T22:26:03.002Z,66.20
2018-02-13T22:28:30.623Z,66.40
2018-02-13T22:30:58.107Z,65.70
2018-02-13T22:33:25.580Z,66.50
2018-02-13T22:35:53.017Z,66.60
2018-02-13T22:38:20.476Z,66.50
2018-02-13T22:40:47.932Z,66.40
2018-02-13T22:43:15.373Z,66.40
2018-02-13T22:45:52.732Z,66.40
2018-02-13T22:48:20.157Z,66.40
2018-02-13T22:50:47.625Z,66.40
2018-02-13T22:53:15.071Z,66.60
2018-02-13T22:55:42.516Z,66.50
2018-02-13T22:58:09.971Z,66.50
2018-02-13T23:00:37.425Z,66.50
2018-02-13T23:03:04.916Z,66.70
2018-02-13T23:05:32.356Z,66.60
2018-02-13T23:07:59.792Z,66.70
2018-02-13T23:10:27.257Z,67.00
2018-02-13T23:12:54.701Z,67.40
2018-02-13T23:15:22.152Z,67.70
2018-02-13T23:17:49.908Z,68.00
2018-02-13T23:20:17.356Z,67.90
2018-02-13T23:22:44.831Z,67.90
2018-02-13T23:25:12.293Z,68.00
2018-02-13T23:27:39.732Z,68.10
2018-02-13T23:30:07.189Z,68.20
2018-02-13T23:32:34.634Z,68.10
2018-02-13T23:35:02.084Z,68.10
2018-02-13T23:37:30.295Z,68.40
2018-02-13T23:39:57.757Z,68.20
2018-02-13T23:42:25.208Z,68.30
2018-02-13T23:44:52.647Z,68.50
2018-02-13T23:47:20.101Z,68.30
2018-02-13T23:49:47.557Z,68.50
2018-02-13T23:52:15.020Z,68.70
2018-02-13T23:54:42.476Z,68.80
2018-02-13T23:57:10.093Z,69.00
2018-02-13T23:59:37.560Z,69.30
